sensor_id;sensor_type;location;lat;lon;timestamp;P1;durP1;ratioP1;P2;durP2;ratioP2
40152;SDS011;26371;56.992;23.912;2022-12-18T00:01:14;38.25;;;15.68;;
40152;SDS011;26371;56.992;23.912;2022-12-18T00:03:50;41.25;;;15.30;;
40152;SDS011;26371;56.992;23.912;2022-12-18T00:06:25;37.72;;;15.38;;
40152;SDS011;26371;56.992;23.912;2022-12-18T00:09:21;53.88;;;19.30;;
40152;SDS011;26371;56.992;23.912;2022-12-18T00:12:23;32.47;;;13.27;;
40152;SDS011;26371;56.992;23.912;2022-12-18T00:15:05;31.45;;;12.43;;
40152;SDS011;26371;56.992;23.912;2022-12-18T00:17:56;27.75;;;11.20;;
40152;SDS011;26371;56.992;23.912;2022-12-18T00:20:31;28.08;;;12.25;;
40152;SDS011;26371;56.992;23.912;2022-12-18T00:23:29;28.55;;;11.65;;
40152;SDS011;26371;56.992;23.912;2022-12-18T00:26:04;27.15;;;11.35;;
40152;SDS011;26371;56.992;23.912;2022-12-18T00:28:36;35.55;;;13.05;;
40152;SDS011;26371;56.992;23.912;2022-12-18T00:31:09;30.08;;;12.27;;
40152;SDS011;26371;56.992;23.912;2022-12-18T00:33:40;32.65;;;12.68;;
40152;SDS011;26371;56.992;23.912;2022-12-18T00:36:20;39.27;;;16.03;;
40152;SDS011;26371;56.992;23.912;2022-12-18T00:38:55;42.03;;;16.13;;
40152;SDS011;26371;56.992;23.912;2022-12-18T00:41:25;37.28;;;14.38;;
40152;SDS011;26371;56.992;23.912;2022-12-18T00:44:13;29.08;;;11.07;;
40152;SDS011;26371;56.992;23.912;2022-12-18T00:46:47;25.90;;;10.75;;
40152;SDS011;26371;56.992;23.912;2022-12-18T00:49:16;30.20;;;10.00;;
40152;SDS011;26371;56.992;23.912;2022-12-18T00:51:46;23.77;;;9.25;;
40152;SDS011;26371;56.992;23.912;2022-12-18T00:54:20;26.33;;;9.13;;
40152;SDS011;26371;56.992;23.912;2022-12-18T00:56:51;26.88;;;9.02;;
40152;SDS011;26371;56.992;23.912;2022-12-18T00:59:26;27.55;;;9.93;;
40152;SDS011;26371;56.992;23.912;2022-12-18T01:01:59;25.52;;;10.80;;
40152;SDS011;26371;56.992;23.912;2022-12-18T01:04:30;26.50;;;10.57;;
40152;SDS011;26371;56.992;23.912;2022-12-18T01:07:08;31.77;;;13.02;;
40152;SDS011;26371;56.992;23.912;2022-12-18T01:09:38;27.80;;;10.43;;
40152;SDS011;26371;56.992;23.912;2022-12-18T01:12:12;28.90;;;10.65;;
40152;SDS011;26371;56.992;23.912;2022-12-18T01:14:41;30.85;;;11.70;;
40152;SDS011;26371;56.992;23.912;2022-12-18T01:17:10;29.85;;;11.63;;
40152;SDS011;26371;56.992;23.912;2022-12-18T01:19:39;39.37;;;13.67;;
40152;SDS011;26371;56.992;23.912;2022-12-18T01:22:12;44.90;;;15.50;;
40152;SDS011;26371;56.992;23.912;2022-12-18T01:24:46;55.72;;;18.30;;
40152;SDS011;26371;56.992;23.912;2022-12-18T01:27:15;41.70;;;15.93;;
40152;SDS011;26371;56.992;23.912;2022-12-18T01:29:44;35.80;;;14.65;;
40152;SDS011;26371;56.992;23.912;2022-12-18T01:32:12;35.30;;;14.52;;
40152;SDS011;26371;56.992;23.912;2022-12-18T01:34:41;33.20;;;14.17;;
40152;SDS011;26371;56.992;23.912;2022-12-18T01:37:10;30.80;;;10.77;;
40152;SDS011;26371;56.992;23.912;2022-12-18T01:39:46;24.38;;;9.98;;
40152;SDS011;26371;56.992;23.912;2022-12-18T01:42:19;32.10;;;13.13;;
40152;SDS011;26371;56.992;23.912;2022-12-18T01:44:55;35.17;;;13.55;;
40152;SDS011;26371;56.992;23.912;2022-12-18T01:47:34;37.22;;;14.63;;
40152;SDS011;26371;56.992;23.912;2022-12-18T01:50:10;38.58;;;16.23;;
40152;SDS011;26371;56.992;23.912;2022-12-18T01:52:43;42.65;;;16.23;;
40152;SDS011;26371;56.992;23.912;2022-12-18T01:55:16;40.78;;;15.57;;
40152;SDS011;26371;56.992;23.912;2022-12-18T01:57:49;37.83;;;13.40;;
40152;SDS011;26371;56.992;23.912;2022-12-18T02:00:21;32.85;;;13.73;;
40152;SDS011;26371;56.992;23.912;2022-12-18T02:05:22;44.88;;;15.10;;
40152;SDS011;26371;56.992;23.912;2022-12-18T02:08:09;50.55;;;17.75;;
40152;SDS011;26371;56.992;23.912;2022-12-18T02:10:46;45.88;;;16.60;;
40152;SDS011;26371;56.992;23.912;2022-12-18T02:13:27;31.63;;;12.10;;
40152;SDS011;26371;56.992;23.912;2022-12-18T02:16:13;40.08;;;14.07;;
40152;SDS011;26371;56.992;23.912;2022-12-18T02:18:51;37.40;;;13.45;;
40152;SDS011;26371;56.992;23.912;2022-12-18T02:21:26;37.63;;;14.07;;
40152;SDS011;26371;56.992;23.912;2022-12-18T02:24:06;42.22;;;14.63;;
40152;SDS011;26371;56.992;23.912;2022-12-18T02:26:47;42.38;;;14.23;;
40152;SDS011;26371;56.992;23.912;2022-12-18T02:29:29;46.65;;;14.05;;
40152;SDS011;26371;56.992;23.912;2022-12-18T02:32:02;38.25;;;13.20;;
40152;SDS011;26371;56.992;23.912;2022-12-18T02:34:44;33.38;;;13.43;;
40152;SDS011;26371;56.992;23.912;2022-12-18T02:37:17;34.35;;;13.02;;
40152;SDS011;26371;56.992;23.912;2022-12-18T02:39:51;34.78;;;12.93;;
40152;SDS011;26371;56.992;23.912;2022-12-18T02:42:25;30.83;;;11.80;;
40152;SDS011;26371;56.992;23.912;2022-12-18T02:44:55;32.42;;;12.35;;
40152;SDS011;26371;56.992;23.912;2022-12-18T02:47:27;32.67;;;13.40;;
40152;SDS011;26371;56.992;23.912;2022-12-18T02:50:02;37.15;;;15.32;;
40152;SDS011;26371;56.992;23.912;2022-12-18T02:52:44;41.70;;;14.38;;
40152;SDS011;26371;56.992;23.912;2022-12-18T02:55:28;38.83;;;13.07;;
40152;SDS011;26371;56.992;23.912;2022-12-18T02:58:14;42.10;;;15.20;;
40152;SDS011;26371;56.992;23.912;2022-12-18T03:00:51;33.75;;;12.38;;
40152;SDS011;26371;56.992;23.912;2022-12-18T03:03:28;37.65;;;12.10;;
40152;SDS011;26371;56.992;23.912;2022-12-18T03:06:04;33.88;;;12.50;;
40152;SDS011;26371;56.992;23.912;2022-12-18T03:08:36;31.25;;;13.27;;
40152;SDS011;26371;56.992;23.912;2022-12-18T03:11:12;36.42;;;14.50;;
40152;SDS011;26371;56.992;23.912;2022-12-18T03:13:44;40.72;;;14.77;;
40152;SDS011;26371;56.992;23.912;2022-12-18T03:16:18;38.58;;;14.70;;
40152;SDS011;26371;56.992;23.912;2022-12-18T03:18:51;35.63;;;14.23;;
40152;SDS011;26371;56.992;23.912;2022-12-18T03:21:42;35.75;;;14.80;;
40152;SDS011;26371;56.992;23.912;2022-12-18T03:24:15;42.45;;;16.58;;
40152;SDS011;26371;56.992;23.912;2022-12-18T03:26:49;38.97;;;14.98;;
40152;SDS011;26371;56.992;23.912;2022-12-18T03:29:24;36.65;;;15.40;;
40152;SDS011;26371;56.992;23.912;2022-12-18T03:32:01;39.97;;;15.20;;
40152;SDS011;26371;56.992;23.912;2022-12-18T03:34:37;36.40;;;13.85;;
40152;SDS011;26371;56.992;23.912;2022-12-18T03:37:12;31.48;;;13.60;;
40152;SDS011;26371;56.992;23.912;2022-12-18T03:39:43;31.75;;;12.95;;
40152;SDS011;26371;56.992;23.912;2022-12-18T03:44:52;34.67;;;13.63;;
40152;SDS011;26371;56.992;23.912;2022-12-18T03:47:28;36.33;;;13.38;;
40152;SDS011;26371;56.992;23.912;2022-12-18T03:50:03;27.88;;;11.38;;
40152;SDS011;26371;56.992;23.912;2022-12-18T03:52:46;34.65;;;12.00;;
40152;SDS011;26371;56.992;23.912;2022-12-18T03:55:21;36.72;;;11.90;;
40152;SDS011;26371;56.992;23.912;2022-12-18T03:57:57;31.00;;;10.98;;
40152;SDS011;26371;56.992;23.912;2022-12-18T04:00:35;39.17;;;11.55;;
40152;SDS011;26371;56.992;23.912;2022-12-18T04:03:07;40.45;;;12.27;;
40152;SDS011;26371;56.992;23.912;2022-12-18T04:05:43;35.05;;;11.98;;
40152;SDS011;26371;56.992;23.912;2022-12-18T04:08:14;35.58;;;13.15;;
40152;SDS011;26371;56.992;23.912;2022-12-18T04:10:53;33.63;;;12.88;;
40152;SDS011;26371;56.992;23.912;2022-12-18T04:13:27;35.38;;;12.10;;
40152;SDS011;26371;56.992;23.912;2022-12-18T04:16:00;38.05;;;12.82;;
40152;SDS011;26371;56.992;23.912;2022-12-18T04:18:31;36.67;;;12.18;;
40152;SDS011;26371;56.992;23.912;2022-12-18T04:21:01;38.67;;;13.30;;
40152;SDS011;26371;56.992;23.912;2022-12-18T04:23:32;38.05;;;14.45;;
40152;SDS011;26371;56.992;23.912;2022-12-18T04:26:01;44.08;;;13.90;;
40152;SDS011;26371;56.992;23.912;2022-12-18T04:28:59;39.90;;;14.75;;
40152;SDS011;26371;56.992;23.912;2022-12-18T04:31:31;40.50;;;14.33;;
40152;SDS011;26371;56.992;23.912;2022-12-18T04:34:05;32.83;;;11.52;;
40152;SDS011;26371;56.992;23.912;2022-12-18T04:36:40;32.90;;;12.68;;
40152;SDS011;26371;56.992;23.912;2022-12-18T04:39:09;39.92;;;12.50;;
40152;SDS011;26371;56.992;23.912;2022-12-18T04:41:38;35.25;;;11.90;;
40152;SDS011;26371;56.992;23.912;2022-12-18T04:44:09;40.25;;;14.75;;
40152;SDS011;26371;56.992;23.912;2022-12-18T04:46:39;39.27;;;14.23;;
40152;SDS011;26371;56.992;23.912;2022-12-18T04:49:09;39.45;;;13.77;;
40152;SDS011;26371;56.992;23.912;2022-12-18T04:51:39;34.15;;;12.75;;
40152;SDS011;26371;56.992;23.912;2022-12-18T04:54:10;26.33;;;10.93;;
40152;SDS011;26371;56.992;23.912;2022-12-18T04:56:39;28.33;;;11.05;;
40152;SDS011;26371;56.992;23.912;2022-12-18T04:59:08;24.75;;;10.65;;
40152;SDS011;26371;56.992;23.912;2022-12-18T05:01:44;31.88;;;11.95;;
40152;SDS011;26371;56.992;23.912;2022-12-18T05:04:15;27.77;;;11.27;;
40152;SDS011;26371;56.992;23.912;2022-12-18T05:06:47;27.33;;;10.70;;
40152;SDS011;26371;56.992;23.912;2022-12-18T05:09:20;28.67;;;11.05;;
40152;SDS011;26371;56.992;23.912;2022-12-18T05:14:17;28.30;;;10.43;;
40152;SDS011;26371;56.992;23.912;2022-12-18T05:16:48;28.73;;;10.30;;
40152;SDS011;26371;56.992;23.912;2022-12-18T05:19:23;27.00;;;9.50;;
40152;SDS011;26371;56.992;23.912;2022-12-18T05:21:52;21.17;;;9.17;;
40152;SDS011;26371;56.992;23.912;2022-12-18T05:24:24;25.30;;;8.68;;
40152;SDS011;26371;56.992;23.912;2022-12-18T05:26:53;25.30;;;9.90;;
40152;SDS011;26371;56.992;23.912;2022-12-18T05:29:27;23.02;;;8.80;;
40152;SDS011;26371;56.992;23.912;2022-12-18T05:31:58;24.08;;;9.27;;
40152;SDS011;26371;56.992;23.912;2022-12-18T05:34:26;25.50;;;8.55;;
40152;SDS011;26371;56.992;23.912;2022-12-18T05:36:58;28.05;;;9.57;;
40152;SDS011;26371;56.992;23.912;2022-12-18T05:39:27;22.40;;;8.98;;
40152;SDS011;26371;56.992;23.912;2022-12-18T05:41:57;23.67;;;9.43;;
40152;SDS011;26371;56.992;23.912;2022-12-18T05:44:28;21.67;;;8.82;;
40152;SDS011;26371;56.992;23.912;2022-12-18T05:47:00;27.23;;;9.68;;
40152;SDS011;26371;56.992;23.912;2022-12-18T05:49:29;27.05;;;10.40;;
40152;SDS011;26371;56.992;23.912;2022-12-18T05:51:58;26.77;;;9.82;;
40152;SDS011;26371;56.992;23.912;2022-12-18T05:54:28;27.45;;;10.07;;
40152;SDS011;26371;56.992;23.912;2022-12-18T05:56:57;32.17;;;12.07;;
40152;SDS011;26371;56.992;23.912;2022-12-18T05:59:26;31.63;;;11.10;;
40152;SDS011;26371;56.992;23.912;2022-12-18T06:01:55;32.15;;;11.38;;
40152;SDS011;26371;56.992;23.912;2022-12-18T06:04:30;38.13;;;11.55;;
40152;SDS011;26371;56.992;23.912;2022-12-18T06:06:59;32.10;;;11.60;;
40152;SDS011;26371;56.992;23.912;2022-12-18T06:09:33;25.90;;;9.50;;
40152;SDS011;26371;56.992;23.912;2022-12-18T06:12:02;26.65;;;9.70;;
40152;SDS011;26371;56.992;23.912;2022-12-18T06:14:33;24.83;;;9.48;;
40152;SDS011;26371;56.992;23.912;2022-12-18T06:17:06;23.90;;;9.35;;
40152;SDS011;26371;56.992;23.912;2022-12-18T06:19:37;25.40;;;9.52;;
40152;SDS011;26371;56.992;23.912;2022-12-18T06:22:05;24.25;;;10.70;;
40152;SDS011;26371;56.992;23.912;2022-12-18T06:24:34;24.10;;;9.65;;
40152;SDS011;26371;56.992;23.912;2022-12-18T06:27:03;22.73;;;9.13;;
40152;SDS011;26371;56.992;23.912;2022-12-18T06:29:34;22.65;;;9.80;;
40152;SDS011;26371;56.992;23.912;2022-12-18T06:32:08;21.02;;;8.82;;
40152;SDS011;26371;56.992;23.912;2022-12-18T06:34:39;22.73;;;9.38;;
40152;SDS011;26371;56.992;23.912;2022-12-18T06:37:08;23.52;;;9.35;;
40152;SDS011;26371;56.992;23.912;2022-12-18T06:39:40;26.17;;;9.65;;
40152;SDS011;26371;56.992;23.912;2022-12-18T06:42:08;24.02;;;9.18;;
40152;SDS011;26371;56.992;23.912;2022-12-18T06:44:38;25.73;;;9.32;;
40152;SDS011;26371;56.992;23.912;2022-12-18T06:47:10;21.10;;;8.38;;
40152;SDS011;26371;56.992;23.912;2022-12-18T06:49:40;23.00;;;9.50;;
40152;SDS011;26371;56.992;23.912;2022-12-18T06:52:09;26.00;;;10.02;;
40152;SDS011;26371;56.992;23.912;2022-12-18T06:54:44;24.30;;;10.23;;
40152;SDS011;26371;56.992;23.912;2022-12-18T06:57:12;26.50;;;10.40;;
40152;SDS011;26371;56.992;23.912;2022-12-18T06:59:51;24.75;;;9.82;;
40152;SDS011;26371;56.992;23.912;2022-12-18T07:02:20;33.47;;;11.32;;
40152;SDS011;26371;56.992;23.912;2022-12-18T07:04:55;27.98;;;10.50;;
40152;SDS011;26371;56.992;23.912;2022-12-18T07:07:24;24.85;;;10.55;;
40152;SDS011;26371;56.992;23.912;2022-12-18T07:10:02;29.08;;;11.23;;
40152;SDS011;26371;56.992;23.912;2022-12-18T07:12:33;25.30;;;10.60;;
40152;SDS011;26371;56.992;23.912;2022-12-18T07:15:02;29.20;;;11.57;;
40152;SDS011;26371;56.992;23.912;2022-12-18T07:17:36;30.83;;;12.50;;
40152;SDS011;26371;56.992;23.912;2022-12-18T07:20:07;32.00;;;12.35;;
40152;SDS011;26371;56.992;23.912;2022-12-18T07:22:40;30.90;;;12.38;;
40152;SDS011;26371;56.992;23.912;2022-12-18T07:25:10;31.23;;;11.82;;
40152;SDS011;26371;56.992;23.912;2022-12-18T07:27:43;33.00;;;13.27;;
40152;SDS011;26371;56.992;23.912;2022-12-18T07:30:14;28.70;;;11.80;;
40152;SDS011;26371;56.992;23.912;2022-12-18T07:32:43;30.85;;;11.80;;
40152;SDS011;26371;56.992;23.912;2022-12-18T07:35:13;28.85;;;12.60;;
40152;SDS011;26371;56.992;23.912;2022-12-18T07:37:52;29.33;;;11.55;;
40152;SDS011;26371;56.992;23.912;2022-12-18T07:40:21;30.40;;;13.00;;
40152;SDS011;26371;56.992;23.912;2022-12-18T07:42:50;27.35;;;12.70;;
40152;SDS011;26371;56.992;23.912;2022-12-18T07:45:20;29.98;;;11.15;;
40152;SDS011;26371;56.992;23.912;2022-12-18T07:47:49;34.60;;;14.02;;
40152;SDS011;26371;56.992;23.912;2022-12-18T07:50:22;26.27;;;11.73;;
40152;SDS011;26371;56.992;23.912;2022-12-18T07:52:55;31.90;;;12.82;;
40152;SDS011;26371;56.992;23.912;2022-12-18T07:55:26;31.40;;;12.52;;
40152;SDS011;26371;56.992;23.912;2022-12-18T07:58:21;29.88;;;12.82;;
40152;SDS011;26371;56.992;23.912;2022-12-18T08:00:50;29.75;;;11.82;;
40152;SDS011;26371;56.992;23.912;2022-12-18T08:03:24;31.17;;;12.10;;
40152;SDS011;26371;56.992;23.912;2022-12-18T08:06:01;33.08;;;13.75;;
40152;SDS011;26371;56.992;23.912;2022-12-18T08:08:36;32.42;;;13.90;;
40152;SDS011;26371;56.992;23.912;2022-12-18T08:11:11;32.15;;;14.30;;
40152;SDS011;26371;56.992;23.912;2022-12-18T08:13:40;30.20;;;12.52;;
40152;SDS011;26371;56.992;23.912;2022-12-18T08:16:12;41.00;;;14.63;;
40152;SDS011;26371;56.992;23.912;2022-12-18T08:18:43;35.97;;;14.75;;
40152;SDS011;26371;56.992;23.912;2022-12-18T08:21:14;32.53;;;13.75;;
40152;SDS011;26371;56.992;23.912;2022-12-18T08:23:50;37.72;;;13.70;;
40152;SDS011;26371;56.992;23.912;2022-12-18T08:26:21;47.17;;;18.23;;
40152;SDS011;26371;56.992;23.912;2022-12-18T08:31:21;81.28;;;27.70;;
40152;SDS011;26371;56.992;23.912;2022-12-18T08:33:50;74.18;;;27.73;;
40152;SDS011;26371;56.992;23.912;2022-12-18T08:36:25;62.70;;;27.75;;
40152;SDS011;26371;56.992;23.912;2022-12-18T08:39:03;53.05;;;28.20;;
40152;SDS011;26371;56.992;23.912;2022-12-18T08:41:31;46.00;;;22.45;;
40152;SDS011;26371;56.992;23.912;2022-12-18T08:44:02;38.58;;;16.77;;
40152;SDS011;26371;56.992;23.912;2022-12-18T08:46:51;40.67;;;19.58;;
40152;SDS011;26371;56.992;23.912;2022-12-18T08:49:19;38.05;;;18.38;;
40152;SDS011;26371;56.992;23.912;2022-12-18T08:51:55;38.47;;;17.73;;
40152;SDS011;26371;56.992;23.912;2022-12-18T08:54:25;30.83;;;13.57;;
40152;SDS011;26371;56.992;23.912;2022-12-18T08:56:56;35.83;;;14.82;;
40152;SDS011;26371;56.992;23.912;2022-12-18T08:59:29;35.05;;;13.60;;
40152;SDS011;26371;56.992;23.912;2022-12-18T09:02:07;37.05;;;14.65;;
40152;SDS011;26371;56.992;23.912;2022-12-18T09:04:41;38.65;;;15.23;;
40152;SDS011;26371;56.992;23.912;2022-12-18T09:07:23;34.47;;;13.32;;
40152;SDS011;26371;56.992;23.912;2022-12-18T09:09:58;34.83;;;13.57;;
40152;SDS011;26371;56.992;23.912;2022-12-18T09:12:29;38.22;;;13.05;;
40152;SDS011;26371;56.992;23.912;2022-12-18T09:15:01;43.10;;;14.40;;
40152;SDS011;26371;56.992;23.912;2022-12-18T09:17:34;41.35;;;14.95;;
40152;SDS011;26371;56.992;23.912;2022-12-18T09:20:11;43.40;;;17.83;;
40152;SDS011;26371;56.992;23.912;2022-12-18T09:22:43;38.38;;;15.55;;
40152;SDS011;26371;56.992;23.912;2022-12-18T09:25:12;33.72;;;13.65;;
40152;SDS011;26371;56.992;23.912;2022-12-18T09:27:46;34.65;;;13.15;;
40152;SDS011;26371;56.992;23.912;2022-12-18T09:32:47;31.27;;;12.85;;
40152;SDS011;26371;56.992;23.912;2022-12-18T09:35:18;34.28;;;13.57;;
40152;SDS011;26371;56.992;23.912;2022-12-18T09:37:48;33.92;;;14.48;;
40152;SDS011;26371;56.992;23.912;2022-12-18T09:40:18;40.00;;;15.90;;
40152;SDS011;26371;56.992;23.912;2022-12-18T09:42:51;36.00;;;14.75;;
40152;SDS011;26371;56.992;23.912;2022-12-18T09:45:30;39.15;;;15.45;;
40152;SDS011;26371;56.992;23.912;2022-12-18T09:48:05;30.13;;;13.93;;
40152;SDS011;26371;56.992;23.912;2022-12-18T09:50:38;37.60;;;14.45;;
40152;SDS011;26371;56.992;23.912;2022-12-18T09:53:17;34.92;;;14.65;;
40152;SDS011;26371;56.992;23.912;2022-12-18T09:55:52;41.55;;;16.13;;
40152;SDS011;26371;56.992;23.912;2022-12-18T09:58:26;33.22;;;13.55;;
40152;SDS011;26371;56.992;23.912;2022-12-18T10:01:06;36.72;;;15.60;;
40152;SDS011;26371;56.992;23.912;2022-12-18T10:03:38;45.90;;;16.98;;
40152;SDS011;26371;56.992;23.912;2022-12-18T10:06:11;37.58;;;16.38;;
40152;SDS011;26371;56.992;23.912;2022-12-18T10:08:49;29.88;;;12.43;;
40152;SDS011;26371;56.992;23.912;2022-12-18T10:11:26;26.85;;;12.02;;
40152;SDS011;26371;56.992;23.912;2022-12-18T10:14:22;32.85;;;13.50;;
40152;SDS011;26371;56.992;23.912;2022-12-18T10:16:57;32.50;;;12.23;;
40152;SDS011;26371;56.992;23.912;2022-12-18T10:19:39;28.75;;;11.50;;
40152;SDS011;26371;56.992;23.912;2022-12-18T10:22:34;34.40;;;14.18;;
40152;SDS011;26371;56.992;23.912;2022-12-18T10:25:21;32.70;;;13.25;;
40152;SDS011;26371;56.992;23.912;2022-12-18T10:27:53;41.15;;;14.77;;
40152;SDS011;26371;56.992;23.912;2022-12-18T10:30:25;40.58;;;14.35;;
40152;SDS011;26371;56.992;23.912;2022-12-18T10:32:54;44.88;;;17.15;;
40152;SDS011;26371;56.992;23.912;2022-12-18T10:35:28;43.38;;;15.93;;
40152;SDS011;26371;56.992;23.912;2022-12-18T10:38:01;34.40;;;14.32;;
40152;SDS011;26371;56.992;23.912;2022-12-18T10:40:33;35.50;;;13.40;;
40152;SDS011;26371;56.992;23.912;2022-12-18T10:43:23;37.55;;;14.10;;
40152;SDS011;26371;56.992;23.912;2022-12-18T10:46:04;35.33;;;13.57;;
40152;SDS011;26371;56.992;23.912;2022-12-18T10:48:52;38.53;;;14.15;;
40152;SDS011;26371;56.992;23.912;2022-12-18T10:51:23;43.25;;;16.70;;
40152;SDS011;26371;56.992;23.912;2022-12-18T10:53:57;31.50;;;12.55;;
40152;SDS011;26371;56.992;23.912;2022-12-18T10:56:35;39.38;;;13.73;;
40152;SDS011;26371;56.992;23.912;2022-12-18T10:59:07;38.70;;;13.32;;
40152;SDS011;26371;56.992;23.912;2022-12-18T11:01:46;32.38;;;14.30;;
40152;SDS011;26371;56.992;23.912;2022-12-18T11:04:19;30.67;;;12.55;;
40152;SDS011;26371;56.992;23.912;2022-12-18T11:06:55;28.35;;;12.48;;
40152;SDS011;26371;56.992;23.912;2022-12-18T11:09:30;31.88;;;12.32;;
40152;SDS011;26371;56.992;23.912;2022-12-18T11:12:08;25.50;;;11.43;;
40152;SDS011;26371;56.992;23.912;2022-12-18T11:14:47;27.60;;;11.32;;
40152;SDS011;26371;56.992;23.912;2022-12-18T11:17:27;30.77;;;10.88;;
40152;SDS011;26371;56.992;23.912;2022-12-18T11:20:00;26.15;;;11.32;;
40152;SDS011;26371;56.992;23.912;2022-12-18T11:22:35;25.10;;;11.63;;
40152;SDS011;26371;56.992;23.912;2022-12-18T11:25:06;25.85;;;11.00;;
40152;SDS011;26371;56.992;23.912;2022-12-18T11:31:16;25.20;;;11.25;;
40152;SDS011;26371;56.992;23.912;2022-12-18T11:33:57;26.83;;;12.75;;
40152;SDS011;26371;56.992;23.912;2022-12-18T11:36:55;27.15;;;11.77;;
40152;SDS011;26371;56.992;23.912;2022-12-18T11:39:30;26.83;;;11.65;;
40152;SDS011;26371;56.992;23.912;2022-12-18T11:42:09;28.48;;;12.30;;
40152;SDS011;26371;56.992;23.912;2022-12-18T11:44:48;29.45;;;13.20;;
40152;SDS011;26371;56.992;23.912;2022-12-18T11:47:25;32.65;;;13.43;;
40152;SDS011;26371;56.992;23.912;2022-12-18T11:50:00;32.13;;;14.40;;
40152;SDS011;26371;56.992;23.912;2022-12-18T11:52:34;33.50;;;15.63;;
40152;SDS011;26371;56.992;23.912;2022-12-18T11:55:10;27.10;;;12.30;;
40152;SDS011;26371;56.992;23.912;2022-12-18T11:57:44;28.75;;;13.93;;
40152;SDS011;26371;56.992;23.912;2022-12-18T12:00:27;33.47;;;14.80;;
40152;SDS011;26371;56.992;23.912;2022-12-18T12:03:23;37.72;;;15.25;;
40152;SDS011;26371;56.992;23.912;2022-12-18T12:06:12;34.00;;;14.95;;
40152;SDS011;26371;56.992;23.912;2022-12-18T12:08:51;35.05;;;16.10;;
40152;SDS011;26371;56.992;23.912;2022-12-18T12:11:31;36.13;;;14.65;;
40152;SDS011;26371;56.992;23.912;2022-12-18T12:14:21;28.60;;;13.63;;
40152;SDS011;26371;56.992;23.912;2022-12-18T12:17:09;29.58;;;13.02;;
40152;SDS011;26371;56.992;23.912;2022-12-18T12:19:47;27.52;;;12.98;;
40152;SDS011;26371;56.992;23.912;2022-12-18T12:22:24;31.70;;;13.15;;
40152;SDS011;26371;56.992;23.912;2022-12-18T12:25:09;27.75;;;12.45;;
40152;SDS011;26371;56.992;23.912;2022-12-18T12:27:58;51.30;;;21.92;;
40152;SDS011;26371;56.992;23.912;2022-12-18T12:30:35;44.15;;;21.17;;
40152;SDS011;26371;56.992;23.912;2022-12-18T12:33:17;45.15;;;23.05;;
40152;SDS011;26371;56.992;23.912;2022-12-18T12:36:00;71.40;;;33.85;;
40152;SDS011;26371;56.992;23.912;2022-12-18T12:38:36;30.45;;;14.82;;
40152;SDS011;26371;56.992;23.912;2022-12-18T12:41:18;40.08;;;19.02;;
40152;SDS011;26371;56.992;23.912;2022-12-18T12:44:13;31.35;;;13.38;;
40152;SDS011;26371;56.992;23.912;2022-12-18T12:46:52;30.73;;;12.95;;
40152;SDS011;26371;56.992;23.912;2022-12-18T12:49:29;27.70;;;11.40;;
40152;SDS011;26371;56.992;23.912;2022-12-18T12:52:07;25.70;;;11.68;;
40152;SDS011;26371;56.992;23.912;2022-12-18T12:54:40;32.33;;;12.73;;
40152;SDS011;26371;56.992;23.912;2022-12-18T12:57:13;30.58;;;12.10;;
40152;SDS011;26371;56.992;23.912;2022-12-18T12:59:52;28.08;;;12.50;;
40152;SDS011;26371;56.992;23.912;2022-12-18T13:02:30;30.83;;;12.93;;
40152;SDS011;26371;56.992;23.912;2022-12-18T13:05:06;30.05;;;14.25;;
40152;SDS011;26371;56.992;23.912;2022-12-18T13:07:46;34.63;;;15.27;;
40152;SDS011;26371;56.992;23.912;2022-12-18T13:13:08;30.50;;;14.85;;
40152;SDS011;26371;56.992;23.912;2022-12-18T13:15:39;25.65;;;12.10;;
40152;SDS011;26371;56.992;23.912;2022-12-18T13:18:16;30.63;;;13.85;;
40152;SDS011;26371;56.992;23.912;2022-12-18T13:20:49;24.58;;;11.40;;
40152;SDS011;26371;56.992;23.912;2022-12-18T13:23:26;25.73;;;11.02;;
40152;SDS011;26371;56.992;23.912;2022-12-18T13:25:56;24.92;;;10.80;;
40152;SDS011;26371;56.992;23.912;2022-12-18T13:34:42;26.88;;;12.50;;
40152;SDS011;26371;56.992;23.912;2022-12-18T13:43:24;29.05;;;12.48;;
40152;SDS011;26371;56.992;23.912;2022-12-18T13:46:01;27.45;;;11.30;;
40152;SDS011;26371;56.992;23.912;2022-12-18T13:48:33;27.00;;;11.70;;
40152;SDS011;26371;56.992;23.912;2022-12-18T13:51:07;27.95;;;11.38;;
40152;SDS011;26371;56.992;23.912;2022-12-18T13:53:46;26.02;;;10.63;;
40152;SDS011;26371;56.992;23.912;2022-12-18T13:56:22;26.63;;;11.77;;
40152;SDS011;26371;56.992;23.912;2022-12-18T13:59:05;31.65;;;12.52;;
40152;SDS011;26371;56.992;23.912;2022-12-18T14:01:46;29.60;;;10.82;;
40152;SDS011;26371;56.992;23.912;2022-12-18T14:04:21;31.73;;;14.65;;
40152;SDS011;26371;56.992;23.912;2022-12-18T14:06:52;31.23;;;12.18;;
40152;SDS011;26371;56.992;23.912;2022-12-18T14:09:26;27.00;;;10.80;;
40152;SDS011;26371;56.992;23.912;2022-12-18T14:12:03;28.50;;;11.23;;
40152;SDS011;26371;56.992;23.912;2022-12-18T14:14:51;24.45;;;11.32;;
40152;SDS011;26371;56.992;23.912;2022-12-18T14:17:22;28.02;;;12.23;;
40152;SDS011;26371;56.992;23.912;2022-12-18T14:19:51;23.95;;;11.20;;
40152;SDS011;26371;56.992;23.912;2022-12-18T14:22:20;26.30;;;10.95;;
40152;SDS011;26371;56.992;23.912;2022-12-18T14:25:13;25.77;;;11.20;;
40152;SDS011;26371;56.992;23.912;2022-12-18T14:27:46;23.42;;;10.48;;
40152;SDS011;26371;56.992;23.912;2022-12-18T14:30:29;26.50;;;11.88;;
40152;SDS011;26371;56.992;23.912;2022-12-18T14:33:03;25.55;;;10.82;;
40152;SDS011;26371;56.992;23.912;2022-12-18T14:35:38;23.02;;;10.23;;
40152;SDS011;26371;56.992;23.912;2022-12-18T14:38:18;26.83;;;11.25;;
40152;SDS011;26371;56.992;23.912;2022-12-18T14:40:53;25.45;;;10.85;;
40152;SDS011;26371;56.992;23.912;2022-12-18T14:43:27;24.05;;;10.10;;
40152;SDS011;26371;56.992;23.912;2022-12-18T14:46:05;27.92;;;12.15;;
40152;SDS011;26371;56.992;23.912;2022-12-18T14:48:57;20.98;;;10.55;;
40152;SDS011;26371;56.992;23.912;2022-12-18T14:51:27;25.25;;;10.60;;
40152;SDS011;26371;56.992;23.912;2022-12-18T14:54:00;70.15;;;32.63;;
40152;SDS011;26371;56.992;23.912;2022-12-18T14:56:37;32.78;;;13.85;;
40152;SDS011;26371;56.992;23.912;2022-12-18T14:59:13;28.70;;;11.32;;
40152;SDS011;26371;56.992;23.912;2022-12-18T15:01:53;28.48;;;10.32;;
40152;SDS011;26371;56.992;23.912;2022-12-18T15:04:32;26.77;;;10.45;;
40152;SDS011;26371;56.992;23.912;2022-12-18T15:07:14;28.33;;;11.63;;
40152;SDS011;26371;56.992;23.912;2022-12-18T15:10:00;27.05;;;10.68;;
40152;SDS011;26371;56.992;23.912;2022-12-18T15:12:38;28.35;;;12.27;;
40152;SDS011;26371;56.992;23.912;2022-12-18T15:18:14;27.45;;;11.48;;
40152;SDS011;26371;56.992;23.912;2022-12-18T15:20:47;26.25;;;10.73;;
40152;SDS011;26371;56.992;23.912;2022-12-18T15:23:18;27.90;;;11.60;;
40152;SDS011;26371;56.992;23.912;2022-12-18T15:25:57;27.75;;;10.60;;
40152;SDS011;26371;56.992;23.912;2022-12-18T15:28:35;28.13;;;11.25;;
40152;SDS011;26371;56.992;23.912;2022-12-18T15:31:20;24.63;;;10.35;;